Terminal Aerodrome Forecast
Issued by NWS

Home | Current Version | Previous Version | Text Only | Print | Product List | Glossary Off
Versions: 1 2 3 4 5 6 7 8 9 10 11 12 13

000
FTUS43 KGRB 012300
TAFATW
TAF
KATW 012334Z 0200/0224 26015G23KT P6SM BKN035
     FM020100 27012KT P6SM SKC
     FM020400 27009KT P6SM BKN040
     FM020900 29005KT P6SM SKC
     FM022100 21005KT P6SM BKN200=

USA.gov is the U.S. government's official web portal to all federal, state and local government web resources and services.